createdAt,value
2017-12-21T00:00:33.993Z,101478.57
2017-12-21T00:03:00.182Z,101471.84
2017-12-21T00:05:26.360Z,101478.80
2017-12-21T00:07:52.712Z,101479.55
2017-12-21T00:10:19.125Z,101475.30
2017-12-21T00:12:45.369Z,101471.59
2017-12-21T00:15:11.810Z,101464.16
2017-12-21T00:17:38.002Z,101457.61
2017-12-21T00:20:04.185Z,101464.72
2017-12-21T00:22:30.403Z,101471.78
2017-12-21T00:24:56.715Z,101471.78
2017-12-21T00:27:22.961Z,101471.29
2017-12-21T00:29:49.185Z,101464.77
2017-12-21T00:32:15.363Z,101468.92
2017-12-21T00:34:41.647Z,101480.09
2017-12-21T00:37:07.862Z,101484.36
2017-12-21T00:39:34.308Z,101481.14
2017-12-21T00:42:00.538Z,101474.56
2017-12-21T00:44:26.777Z,101477.92
2017-12-21T00:46:53.188Z,101481.73
2017-12-21T00:49:19.429Z,101486.23
2017-12-21T00:51:45.647Z,101485.66
2017-12-21T00:54:11.839Z,101477.44
2017-12-21T00:56:38.034Z,101478.82
2017-12-21T00:59:04.255Z,101479.03
2017-12-21T01:01:30.455Z,101474.05
2017-12-21T01:03:56.768Z,101476.41
2017-12-21T01:06:22.995Z,101477.48
2017-12-21T01:08:49.194Z,101482.35
2017-12-21T01:11:15.390Z,101487.45
2017-12-21T01:13:41.619Z,101485.77
2017-12-21T01:16:07.806Z,101487.36
2017-12-21T01:18:33.978Z,101485.08
2017-12-21T01:21:00.210Z,101484.09
2017-12-21T01:23:26.414Z,101476.39
2017-12-21T01:25:52.597Z,101485.33
2017-12-21T01:28:18.820Z,101479.14
2017-12-21T01:30:45.101Z,101471.84
2017-12-21T01:33:11.285Z,101472.62
2017-12-21T01:35:37.487Z,101476.89
2017-12-21T01:38:03.660Z,101473.11
2017-12-21T01:40:29.832Z,101476.97
2017-12-21T01:42:56.064Z,101481.59
2017-12-21T01:45:22.261Z,101484.36
2017-12-21T01:47:48.485Z,101484.36
2017-12-21T01:50:14.718Z,101491.72
2017-12-21T01:52:40.927Z,101487.80
2017-12-21T01:55:07.110Z,101478.73
2017-12-21T01:57:33.288Z,101485.52
2017-12-21T01:59:59.504Z,101479.12
2017-12-21T02:02:25.704Z,101477.41
2017-12-21T02:04:51.899Z,101483.47
2017-12-21T02:07:18.114Z,101479.66
2017-12-21T02:09:44.291Z,101480.53
2017-12-21T02:12:10.482Z,101474.29
2017-12-21T02:14:36.808Z,101472.42
2017-12-21T02:17:02.988Z,101458.31
2017-12-21T02:19:29.177Z,101454.00
2017-12-21T02:21:55.404Z,101457.12
2017-12-21T02:24:21.587Z,101455.31
2017-12-21T02:26:47.785Z,101449.07
2017-12-21T02:29:14.078Z,101452.34
2017-12-21T02:31:40.418Z,101443.77
2017-12-21T02:34:06.634Z,101450.49
2017-12-21T02:36:32.859Z,101448.98
2017-12-21T02:38:59.031Z,101448.38
2017-12-21T02:41:25.224Z,101447.61
2017-12-21T02:43:51.458Z,101447.06
2017-12-21T02:46:17.666Z,101445.98
2017-12-21T02:48:43.835Z,101445.97
2017-12-21T02:51:10.044Z,101441.50
2017-12-21T02:53:36.224Z,101435.62
2017-12-21T02:56:02.416Z,101437.06
2017-12-21T02:58:28.643Z,101431.04
2017-12-21T03:00:54.918Z,101436.68
2017-12-21T03:03:21.101Z,101437.70
2017-12-21T03:05:47.322Z,101437.63
2017-12-21T03:08:13.497Z,101437.81
2017-12-21T03:10:39.683Z,101436.56
2017-12-21T03:13:06.102Z,101443.85
2017-12-21T03:15:32.288Z,101447.18
2017-12-21T03:17:58.491Z,101450.95
2017-12-21T03:20:24.712Z,101451.20
2017-12-21T03:22:50.913Z,101455.22
2017-12-21T03:25:17.632Z,101452.70
2017-12-21T03:27:43.847Z,101449.42
2017-12-21T03:30:10.043Z,101457.11
2017-12-21T03:32:36.232Z,101452.61
2017-12-21T03:35:02.553Z,101461.25
2017-12-21T03:37:28.796Z,101465.39
2017-12-21T03:39:55.019Z,101473.52
2017-12-21T03:42:21.664Z,101476.53
2017-12-21T03:44:47.844Z,101482.59
2017-12-21T03:47:14.109Z,101480.78
2017-12-21T03:49:40.328Z,101478.98
2017-12-21T03:52:06.578Z,101479.55
2017-12-21T03:54:32.960Z,101488.08
2017-12-21T03:56:59.423Z,101491.26
2017-12-21T03:59:25.599Z,101489.16
2017-12-21T04:01:51.773Z,101490.45
2017-12-21T04:04:17.996Z,101493.30
2017-12-21T04:06:44.175Z,101499.00
2017-12-21T04:09:10.347Z,101498.07
2017-12-21T04:11:36.578Z,101500.38
2017-12-21T04:14:02.834Z,101501.87
2017-12-21T04:16:29.020Z,101504.97
2017-12-21T04:18:55.232Z,101496.56
2017-12-21T04:21:21.416Z,101501.77
2017-12-21T04:23:47.593Z,101503.05
2017-12-21T04:26:13.946Z,101505.33
2017-12-21T04:28:40.212Z,101508.27
2017-12-21T04:31:06.430Z,101507.85
2017-12-21T04:33:32.677Z,101504.19
2017-12-21T04:35:58.877Z,101503.66
2017-12-21T04:38:25.060Z,101498.34
2017-12-21T04:40:51.255Z,101499.81
2017-12-21T04:43:17.455Z,101498.52
2017-12-21T04:45:43.637Z,101501.10
2017-12-21T04:48:09.862Z,101504.83
2017-12-21T04:50:36.044Z,101498.73
2017-12-21T04:53:02.267Z,101491.05
2017-12-21T04:55:28.523Z,101496.15
2017-12-21T04:57:54.738Z,101496.09
2017-12-21T05:00:20.930Z,101497.67
2017-12-21T05:02:47.208Z,101490.63
2017-12-21T05:05:13.595Z,101505.72
2017-12-21T05:07:39.784Z,101501.48
2017-12-21T05:10:06.016Z,101509.78
2017-12-21T05:12:32.351Z,101511.83
2017-12-21T05:14:58.752Z,101507.20
2017-12-21T05:17:25.252Z,101504.87
2017-12-21T05:19:51.618Z,101507.03
2017-12-21T05:22:17.858Z,101502.47
2017-12-21T05:24:44.279Z,101503.48
2017-12-21T05:27:10.544Z,101504.03
2017-12-21T05:29:36.721Z,101508.67
2017-12-21T05:32:02.936Z,101502.02
2017-12-21T05:34:29.108Z,101504.35
2017-12-21T05:36:55.308Z,101514.85
2017-12-21T05:39:21.549Z,101510.20
2017-12-21T05:41:47.726Z,101521.66
2017-12-21T05:44:14.108Z,101523.70
2017-12-21T05:46:40.504Z,101526.64
2017-12-21T05:49:06.764Z,101519.80
2017-12-21T05:51:32.953Z,101522.16
2017-12-21T05:53:59.223Z,101512.75
2017-12-21T05:56:25.472Z,101517.89
2017-12-21T05:58:51.681Z,101521.34
2017-12-21T06:01:18.123Z,101523.11
2017-12-21T06:03:44.309Z,101526.17
2017-12-21T06:06:10.501Z,101520.80
2017-12-21T06:08:36.714Z,101523.27
2017-12-21T06:11:02.914Z,101524.68
2017-12-21T06:13:29.123Z,101525.28
2017-12-21T06:15:55.449Z,101522.08
2017-12-21T06:18:21.649Z,101520.18
2017-12-21T06:20:47.866Z,101522.67
2017-12-21T06:23:14.189Z,101521.41
2017-12-21T06:25:40.370Z,101526.25
2017-12-21T06:28:06.561Z,101534.33
2017-12-21T06:30:32.779Z,101532.43
2017-12-21T06:32:59.058Z,101533.91
2017-12-21T06:35:25.238Z,101537.78
2017-12-21T06:37:51.462Z,101531.74
2017-12-21T06:40:17.686Z,101532.08
2017-12-21T06:42:43.889Z,101539.43
2017-12-21T06:45:10.118Z,101534.44
2017-12-21T06:47:36.310Z,101531.90
2017-12-21T06:50:02.499Z,101536.20
2017-12-21T06:52:28.717Z,101541.49
2017-12-21T06:54:54.889Z,101536.22
2017-12-21T06:57:21.071Z,101543.85
2017-12-21T06:59:47.314Z,101542.67
2017-12-21T07:02:13.600Z,101542.84
2017-12-21T07:04:39.786Z,101542.71
2017-12-21T07:07:06.059Z,101540.61
2017-12-21T07:09:32.254Z,101550.65
2017-12-21T07:11:58.465Z,101552.06
2017-12-21T07:14:24.693Z,101545.16
2017-12-21T07:16:50.882Z,101544.59
2017-12-21T07:19:17.197Z,101545.50
2017-12-21T07:21:43.438Z,101540.88
2017-12-21T07:24:09.627Z,101534.52
2017-12-21T07:26:35.818Z,101539.98
2017-12-21T07:29:02.062Z,101545.83
2017-12-21T07:31:28.266Z,101541.51
2017-12-21T07:33:54.584Z,101549.48
2017-12-21T07:36:20.805Z,101541.13
2017-12-21T07:38:47.037Z,101544.33
2017-12-21T07:41:13.304Z,101533.03
2017-12-21T07:43:39.713Z,101537.29
2017-12-21T07:46:05.891Z,101543.00
2017-12-21T07:48:32.192Z,101543.36
2017-12-21T07:50:58.421Z,101550.04
2017-12-21T07:53:24.688Z,101541.74
2017-12-21T07:55:50.854Z,101546.13
2017-12-21T07:58:17.086Z,101554.37
2017-12-21T08:00:43.284Z,101560.02
2017-12-21T08:03:09.505Z,101570.61
2017-12-21T08:05:35.740Z,101579.52
2017-12-21T08:08:01.926Z,101575.91
2017-12-21T08:10:28.144Z,101579.11
2017-12-21T08:12:54.353Z,101577.70
2017-12-21T08:15:20.533Z,101582.69
2017-12-21T08:17:46.706Z,101574.80
2017-12-21T08:20:12.929Z,101573.73
2017-12-21T08:22:39.122Z,101571.38
2017-12-21T08:25:05.476Z,101560.97
2017-12-21T08:27:31.729Z,101569.42
2017-12-21T08:29:57.910Z,101573.14
2017-12-21T08:32:24.103Z,101579.48
2017-12-21T08:34:50.325Z,101585.03
2017-12-21T08:37:16.640Z,101583.77
2017-12-21T08:39:42.829Z,101587.34
2017-12-21T08:42:09.058Z,101589.58
2017-12-21T08:44:35.253Z,101585.87
2017-12-21T08:47:01.437Z,101579.11
2017-12-21T08:49:27.701Z,101580.02
2017-12-21T08:51:53.979Z,101570.26
2017-12-21T08:54:20.157Z,101573.50
2017-12-21T08:56:46.366Z,101578.40
2017-12-21T08:59:12.538Z,101572.23
2017-12-21T09:01:38.706Z,101571.50
2017-12-21T09:04:04.925Z,101570.81
2017-12-21T09:06:31.106Z,101571.31
2017-12-21T09:08:57.378Z,101567.60
2017-12-21T09:11:23.584Z,101551.16
2017-12-21T09:13:49.768Z,101551.74
2017-12-21T09:16:15.954Z,101547.15
2017-12-21T09:18:42.164Z,101552.28
2017-12-21T09:21:08.330Z,101543.59
2017-12-21T09:23:34.490Z,101543.34
2017-12-21T09:26:00.722Z,101539.75
2017-12-21T09:28:26.900Z,101537.14
2017-12-21T09:30:53.103Z,101539.13
2017-12-21T09:33:19.455Z,101536.56
2017-12-21T09:35:45.649Z,101538.05
2017-12-21T09:38:11.847Z,101535.53
2017-12-21T09:40:38.078Z,101533.67
2017-12-21T09:43:04.269Z,101532.55
2017-12-21T09:45:30.453Z,101531.97
2017-12-21T09:47:56.677Z,101532.00
2017-12-21T09:50:22.846Z,101530.20
2017-12-21T09:52:49.060Z,101521.90
2017-12-21T09:55:15.283Z,101524.97
2017-12-21T09:57:41.454Z,101523.50
2017-12-21T10:00:07.637Z,101524.94
2017-12-21T10:02:33.855Z,101519.34
2017-12-21T10:05:00.018Z,101514.37
2017-12-21T10:07:26.190Z,101517.80
2017-12-21T10:09:52.408Z,101521.41
2017-12-21T10:12:18.592Z,101515.41
2017-12-21T10:14:44.758Z,101525.85
2017-12-21T10:17:10.975Z,101524.33
2017-12-21T10:19:37.156Z,101521.82
2017-12-21T10:22:03.337Z,101527.86
2017-12-21T10:24:29.549Z,101526.17
2017-12-21T10:26:55.719Z,101521.33
2017-12-21T10:29:21.899Z,101512.34
2017-12-21T10:31:48.150Z,101506.02
2017-12-21T10:34:14.355Z,101486.56
2017-12-21T10:36:40.550Z,101485.13
2017-12-21T10:39:06.768Z,101477.70
2017-12-21T10:41:32.965Z,101481.95
2017-12-21T10:43:59.172Z,101489.67
2017-12-21T10:46:25.397Z,101494.65
2017-12-21T10:48:51.603Z,101494.39
2017-12-21T10:51:17.800Z,101493.55
2017-12-21T10:53:44.012Z,101495.72
2017-12-21T10:56:10.198Z,101501.59
2017-12-21T10:58:36.387Z,101502.11
2017-12-21T11:01:02.631Z,101499.38
2017-12-21T11:03:28.842Z,101500.39
2017-12-21T11:05:55.052Z,101501.44
2017-12-21T11:08:21.349Z,101499.50
2017-12-21T11:10:47.527Z,101498.63
2017-12-21T11:13:13.726Z,101492.55
2017-12-21T11:15:39.929Z,101481.09
2017-12-21T11:18:06.113Z,101482.89
2017-12-21T11:20:32.284Z,101483.04
2017-12-21T11:22:58.498Z,101485.11
2017-12-21T11:25:24.725Z,101495.89
2017-12-21T11:27:50.924Z,101490.76
2017-12-21T11:30:17.157Z,101483.82
2017-12-21T11:32:43.357Z,101482.22
2017-12-21T11:35:09.528Z,101482.20
2017-12-21T11:37:35.764Z,101477.02
2017-12-21T11:40:01.948Z,101477.83
2017-12-21T11:42:28.134Z,101485.74
2017-12-21T11:44:54.354Z,101478.22
2017-12-21T11:47:20.546Z,101479.64
2017-12-21T11:49:46.756Z,101473.20
2017-12-21T11:52:12.960Z,101473.44
2017-12-21T11:54:39.134Z,101479.05
2017-12-21T11:57:05.318Z,101466.47
2017-12-21T11:59:31.569Z,101456.88
2017-12-21T12:01:57.751Z,101460.69
2017-12-21T12:04:23.943Z,101466.57
2017-12-21T12:06:50.163Z,101469.20
2017-12-21T12:09:16.350Z,101467.75
2017-12-21T12:11:42.518Z,101467.97
2017-12-21T12:14:08.742Z,101467.23
2017-12-21T12:16:34.933Z,101470.26
2017-12-21T12:19:01.129Z,101466.19
2017-12-21T12:21:27.348Z,101458.02
2017-12-21T12:23:53.531Z,101453.64
2017-12-21T12:26:19.840Z,101450.81
2017-12-21T12:28:46.040Z,101446.94
2017-12-21T12:31:12.248Z,101448.43
2017-12-21T12:33:38.439Z,101436.11
2017-12-21T12:36:04.651Z,101431.05
2017-12-21T12:38:30.852Z,101429.23
2017-12-21T12:40:57.067Z,101425.37
2017-12-21T12:43:23.265Z,101420.22
2017-12-21T12:45:49.487Z,101418.30
2017-12-21T12:48:15.664Z,101420.88
2017-12-21T12:50:41.890Z,101413.94
2017-12-21T12:53:08.110Z,101415.80
2017-12-21T12:55:34.283Z,101408.17
2017-12-21T12:58:00.472Z,101415.00
2017-12-21T13:00:26.689Z,101415.26
2017-12-21T13:02:52.854Z,101418.73
2017-12-21T13:05:19.028Z,101416.06
2017-12-21T13:07:45.326Z,101412.26
2017-12-21T13:10:11.519Z,101408.30
2017-12-21T13:12:37.701Z,101401.81
2017-12-21T13:15:03.925Z,101401.38
2017-12-21T13:17:30.109Z,101406.58
2017-12-21T13:19:56.298Z,101409.36
2017-12-21T13:22:22.507Z,101407.13
2017-12-21T13:24:48.732Z,101400.52
2017-12-21T13:27:14.908Z,101406.02
2017-12-21T13:29:41.158Z,101406.91
2017-12-21T13:32:07.341Z,101413.09
2017-12-21T13:34:33.533Z,101424.15
2017-12-21T13:36:59.750Z,101421.38
2017-12-21T13:39:25.940Z,101423.95
2017-12-21T13:41:52.118Z,101424.65
2017-12-21T13:44:18.547Z,101423.61
2017-12-21T13:46:44.745Z,101421.31
2017-12-21T13:49:10.931Z,101410.09
2017-12-21T13:51:37.150Z,101413.03
2017-12-21T13:54:03.330Z,101416.36
2017-12-21T13:56:29.529Z,101417.05
2017-12-21T13:58:55.759Z,101419.18
2017-12-21T14:01:21.947Z,101417.56
2017-12-21T14:03:48.123Z,101422.23
2017-12-21T14:06:14.425Z,101430.52
2017-12-21T14:08:40.603Z,101433.48
2017-12-21T14:11:06.777Z,101432.88
2017-12-21T14:13:33.043Z,101440.45
2017-12-21T14:15:59.222Z,101436.17
2017-12-21T14:18:25.394Z,101436.92
2017-12-21T14:20:51.597Z,101438.72
2017-12-21T14:23:17.778Z,101433.41
2017-12-21T14:25:43.958Z,101433.17
2017-12-21T14:28:10.168Z,101432.88
2017-12-21T14:30:36.351Z,101427.41
2017-12-21T14:33:02.549Z,101425.94
2017-12-21T14:35:28.764Z,101432.08
2017-12-21T14:37:54.927Z,101434.02
2017-12-21T14:40:21.171Z,101441.50
2017-12-21T14:42:47.401Z,101441.58
2017-12-21T14:45:13.581Z,101431.30
2017-12-21T14:47:39.767Z,101439.98
2017-12-21T14:50:05.982Z,101434.55
2017-12-21T14:52:32.186Z,101438.95
2017-12-21T14:54:58.367Z,101434.72
2017-12-21T14:57:24.601Z,101433.69
2017-12-21T14:59:50.798Z,101431.13
2017-12-21T15:02:16.983Z,101440.37
2017-12-21T15:04:43.195Z,101432.84
2017-12-21T15:07:09.375Z,101434.91
2017-12-21T15:09:35.558Z,101438.73
2017-12-21T15:12:01.791Z,101435.34
2017-12-21T15:14:27.966Z,101441.62
2017-12-21T15:16:54.172Z,101442.28
2017-12-21T15:19:20.373Z,101440.13
2017-12-21T15:21:46.571Z,101446.18
2017-12-21T15:24:12.763Z,101447.61
2017-12-21T15:26:39.011Z,101456.23
2017-12-21T15:29:05.234Z,101451.08
2017-12-21T15:31:31.408Z,101449.45
2017-12-21T15:33:57.625Z,101445.53
2017-12-21T15:36:23.800Z,101445.45
2017-12-21T15:38:49.990Z,101449.23
2017-12-21T15:41:16.233Z,101461.27
2017-12-21T15:43:42.438Z,101467.63
2017-12-21T15:46:08.617Z,101465.58
2017-12-21T15:48:34.887Z,101466.83
2017-12-21T15:51:01.087Z,101463.06
2017-12-21T15:53:27.265Z,101464.78
2017-12-21T15:55:53.520Z,101469.02
2017-12-21T15:58:19.750Z,101468.22
2017-12-21T16:00:45.936Z,101470.94
2017-12-21T16:03:12.254Z,101463.09
2017-12-21T16:05:38.437Z,101464.89
2017-12-21T16:08:04.627Z,101472.33
2017-12-21T16:10:30.842Z,101483.65
2017-12-21T16:12:57.039Z,101483.81
2017-12-21T16:15:23.197Z,101486.75
2017-12-21T16:17:49.409Z,101481.44
2017-12-21T16:20:15.595Z,101485.39
2017-12-21T16:22:41.783Z,101481.66
2017-12-21T16:25:07.986Z,101484.10
2017-12-21T16:27:34.160Z,101490.95
2017-12-21T16:30:00.332Z,101486.09
2017-12-21T16:32:26.548Z,101495.73
2017-12-21T16:34:52.728Z,101490.08
2017-12-21T16:37:18.929Z,101487.97
2017-12-21T16:39:45.149Z,101490.48
2017-12-21T16:42:11.316Z,101494.44
2017-12-21T16:44:37.496Z,101495.20
2017-12-21T16:47:03.732Z,101499.34
2017-12-21T16:49:29.920Z,101507.20
2017-12-21T16:51:56.218Z,101505.03
2017-12-21T16:54:22.419Z,101507.96
2017-12-21T16:56:48.591Z,101515.83
2017-12-21T16:59:14.774Z,101512.06
2017-12-21T17:01:40.984Z,101517.20
2017-12-21T17:04:07.176Z,101521.08
2017-12-21T17:06:33.361Z,101527.86
2017-12-21T17:08:59.580Z,101525.99
2017-12-21T17:11:25.781Z,101526.25
2017-12-21T17:13:51.961Z,101526.14
2017-12-21T17:16:18.174Z,101526.51
2017-12-21T17:18:44.405Z,101522.06
2017-12-21T17:21:10.602Z,101530.85
2017-12-21T17:23:36.847Z,101531.63
2017-12-21T17:26:03.202Z,101529.46
2017-12-21T17:28:29.390Z,101526.02
2017-12-21T17:30:55.595Z,101524.09
2017-12-21T17:33:21.781Z,101529.05
2017-12-21T17:35:47.967Z,101525.81
2017-12-21T17:38:14.206Z,101528.30
2017-12-21T17:40:40.390Z,101527.77
2017-12-21T17:43:06.570Z,101524.16
2017-12-21T17:45:32.805Z,101519.04
2017-12-21T17:47:59.005Z,101513.40
2017-12-21T17:50:25.192Z,101510.58
2017-12-21T17:52:51.402Z,101514.09
2017-12-21T17:55:17.601Z,101512.10
2017-12-21T17:57:43.985Z,101524.43
2017-12-21T18:00:10.212Z,101516.25
2017-12-21T18:02:36.429Z,101520.69
2017-12-21T18:05:02.626Z,101514.23
2017-12-21T18:07:28.845Z,101512.13
2017-12-21T18:09:55.038Z,101512.63
2017-12-21T18:12:21.276Z,101501.30
2017-12-21T18:14:47.496Z,101498.17
2017-12-21T18:17:13.677Z,101495.53
2017-12-21T18:19:39.848Z,101496.28
2017-12-21T18:22:06.070Z,101490.83
2017-12-21T18:24:32.245Z,101493.99
2017-12-21T18:26:58.559Z,101499.77
2017-12-21T18:29:24.798Z,101496.30
2017-12-21T18:31:50.986Z,101495.06
2017-12-21T18:34:17.167Z,101501.77
2017-12-21T18:36:43.402Z,101497.74
2017-12-21T18:39:09.568Z,101492.27
2017-12-21T18:41:35.758Z,101501.33
2017-12-21T18:44:01.973Z,101492.84
2017-12-21T18:46:28.139Z,101495.84
2017-12-21T18:48:54.322Z,101491.51
2017-12-21T18:51:20.529Z,101484.09
2017-12-21T18:53:46.710Z,101486.77
2017-12-21T18:56:12.881Z,101483.30
2017-12-21T18:58:39.085Z,101481.30
2017-12-21T19:01:05.268Z,101475.72
2017-12-21T19:03:31.538Z,101473.02
2017-12-21T19:05:57.756Z,101475.00
2017-12-21T19:08:23.931Z,101466.70
2017-12-21T19:10:50.100Z,101472.64
2017-12-21T19:13:16.312Z,101469.94
2017-12-21T19:15:42.500Z,101477.72
2017-12-21T19:18:08.699Z,101479.58
2017-12-21T19:20:34.949Z,101477.39
2017-12-21T19:23:01.137Z,101478.95
2017-12-21T19:25:27.301Z,101479.84
2017-12-21T19:27:53.636Z,101473.28
2017-12-21T19:30:19.831Z,101471.78
2017-12-21T19:32:46.046Z,101475.53
2017-12-21T19:35:12.261Z,101476.19
2017-12-21T19:37:38.442Z,101479.43
2017-12-21T19:40:04.625Z,101482.67
2017-12-21T19:42:30.835Z,101486.51
2017-12-21T19:44:57.004Z,101480.09
2017-12-21T19:47:23.167Z,101476.61
2017-12-21T19:49:49.388Z,101475.14
2017-12-21T19:52:15.568Z,101471.19
2017-12-21T19:54:41.772Z,101472.14
2017-12-21T19:57:08.012Z,101466.40
2017-12-21T19:59:34.199Z,101462.67
2017-12-21T20:02:00.385Z,101472.50
2017-12-21T20:04:26.609Z,101471.53
2017-12-21T20:06:52.875Z,101476.52
2017-12-21T20:09:19.065Z,101475.80
2017-12-21T20:11:45.290Z,101475.36
2017-12-21T20:14:11.480Z,101477.10
2017-12-21T20:16:37.678Z,101473.67
2017-12-21T20:19:03.879Z,101470.81
2017-12-21T20:21:30.054Z,101474.70
2017-12-21T20:23:56.246Z,101479.36
2017-12-21T20:26:22.475Z,101483.09
2017-12-21T20:28:48.685Z,101480.51
2017-12-21T20:31:14.873Z,101484.41
2017-12-21T20:33:41.122Z,101480.70
2017-12-21T20:36:07.303Z,101485.69
2017-12-21T20:38:33.487Z,101475.17
2017-12-21T20:40:59.727Z,101472.07
2017-12-21T20:43:25.917Z,101472.88
2017-12-21T20:45:52.089Z,101476.33
2017-12-21T20:48:18.283Z,101474.03
2017-12-21T20:50:44.590Z,101473.68
2017-12-21T20:53:10.774Z,101478.66
2017-12-21T20:55:36.992Z,101472.07
2017-12-21T20:58:03.155Z,101470.55
2017-12-21T21:00:29.327Z,101469.03
2017-12-21T21:02:55.539Z,101473.63
2017-12-21T21:05:21.714Z,101466.08
2017-12-21T21:07:48.010Z,101468.55
2017-12-21T21:10:14.241Z,101464.59
2017-12-21T21:12:40.436Z,101462.55
2017-12-21T21:15:06.620Z,101461.55
2017-12-21T21:17:32.849Z,101459.46
2017-12-21T21:19:59.066Z,101455.38
2017-12-21T21:22:25.245Z,101450.02
2017-12-21T21:24:51.435Z,101450.92
2017-12-21T21:27:17.612Z,101453.25
2017-12-21T21:29:44.990Z,101455.28
2017-12-21T21:32:12.806Z,101457.25
2017-12-21T21:34:40.212Z,101453.18
2017-12-21T21:37:07.508Z,101453.45
2017-12-21T21:39:33.862Z,101451.97
2017-12-21T21:42:00.876Z,101448.38
2017-12-21T21:44:27.971Z,101450.34
2017-12-21T21:46:55.797Z,101447.17
2017-12-21T21:49:23.427Z,101444.80
2017-12-21T21:51:50.789Z,101446.89
2017-12-21T21:54:18.177Z,101439.70
2017-12-21T21:56:45.670Z,101429.89
2017-12-21T21:59:12.030Z,101425.41
2017-12-21T22:01:38.257Z,101421.80
2017-12-21T22:04:04.445Z,101417.19
2017-12-21T22:06:30.642Z,101424.89
2017-12-21T22:08:56.876Z,101424.45
2017-12-21T22:11:23.052Z,101416.31
2017-12-21T22:13:49.263Z,101411.38
2017-12-21T22:16:15.496Z,101405.19
2017-12-21T22:18:41.676Z,101399.08
2017-12-21T22:21:07.852Z,101392.57
2017-12-21T22:23:34.083Z,101393.27
2017-12-21T22:26:00.296Z,101396.77
2017-12-21T22:28:26.623Z,101393.45
2017-12-21T22:30:52.835Z,101395.81
2017-12-21T22:33:19.029Z,101394.45
2017-12-21T22:35:45.267Z,101386.77
2017-12-21T22:38:11.483Z,101384.66
2017-12-21T22:40:37.683Z,101386.94
2017-12-21T22:43:03.909Z,101378.63
2017-12-21T22:45:30.116Z,101378.37
2017-12-21T22:47:56.279Z,101380.59
2017-12-21T22:50:22.537Z,101364.51
2017-12-21T22:52:48.718Z,101382.23
2017-12-21T22:55:14.936Z,101370.22
2017-12-21T22:57:41.168Z,101366.77
2017-12-21T23:00:07.350Z,101371.55
2017-12-21T23:02:33.532Z,101370.44
2017-12-21T23:04:59.767Z,101371.88
2017-12-21T23:07:25.953Z,101367.82
2017-12-21T23:09:52.171Z,101373.25
2017-12-21T23:12:18.371Z,101373.20
2017-12-21T23:14:44.541Z,101366.17
2017-12-21T23:17:10.732Z,101364.02
2017-12-21T23:19:36.968Z,101358.67
2017-12-21T23:22:03.140Z,101343.23
2017-12-21T23:24:29.318Z,101363.70
2017-12-21T23:26:55.559Z,101362.14
2017-12-21T23:29:21.746Z,101369.74
2017-12-21T23:31:47.942Z,101362.77
2017-12-21T23:34:14.146Z,101363.92
2017-12-21T23:36:40.329Z,101358.99
2017-12-21T23:39:06.502Z,101359.19
2017-12-21T23:41:32.746Z,101357.67
2017-12-21T23:43:58.929Z,101349.58
2017-12-21T23:46:25.149Z,101340.45
2017-12-21T23:48:51.356Z,101358.45
2017-12-21T23:51:17.534Z,101357.30
2017-12-21T23:53:43.717Z,101359.55
2017-12-21T23:56:09.944Z,101360.17
2017-12-21T23:58:36.108Z,101362.64
